createdAt,value
2022-12-11T00:09:48.406Z,7.4
2022-12-11T00:19:56.591Z,7.4
2022-12-11T00:30:05.719Z,7.5
2022-12-11T00:40:13.844Z,7.6
2022-12-11T00:50:23.133Z,7.1
2022-12-11T01:00:31.405Z,6.5
2022-12-11T01:10:39.415Z,6.7
2022-12-11T01:20:47.379Z,6.2
2022-12-11T01:30:55.405Z,6
2022-12-11T01:41:03.219Z,6
2022-12-11T01:51:11.198Z,6.2
2022-12-11T02:01:19.191Z,6.2
2022-12-11T02:11:27.237Z,6.3
2022-12-11T02:21:35.481Z,6.4
2022-12-11T02:31:43.688Z,6.7
2022-12-11T02:41:43.957Z,7.1
2022-12-11T02:51:52.023Z,7.3
2022-12-11T03:02:00.335Z,7.3
2022-12-11T03:12:09.551Z,7.9
2022-12-11T03:22:17.618Z,7.4
2022-12-11T03:32:25.820Z,7.8
2022-12-11T03:42:34.112Z,8.2
2022-12-11T03:52:45.682Z,7.7
2022-12-11T04:02:49.404Z,7.1
2022-12-11T04:12:57.505Z,7
2022-12-11T04:23:05.479Z,6.8
2022-12-11T04:33:13.503Z,6.8
2022-12-11T04:43:22.347Z,6.7
2022-12-11T04:53:31.427Z,6.8
2022-12-11T05:03:39.671Z,6.7
2022-12-11T05:13:48.145Z,6.6
2022-12-11T05:23:56.164Z,6.5
2022-12-11T05:34:04.199Z,6.5
2022-12-11T05:44:12.216Z,6.6
2022-12-11T05:54:20.284Z,6.6
2022-12-11T06:04:28.303Z,6.9
2022-12-11T06:14:36.428Z,7
2022-12-11T06:24:44.649Z,6.8
2022-12-11T06:34:53.194Z,7
2022-12-11T06:45:01.357Z,6.7
2022-12-11T06:55:09.542Z,7
2022-12-11T07:05:17.718Z,7.1
2022-12-11T07:15:26.099Z,7.2
2022-12-11T07:25:35.049Z,7.4
2022-12-11T07:35:43.316Z,7.5
2022-12-11T07:45:51.956Z,7.5
2022-12-11T07:56:02.074Z,7.5
2022-12-11T08:06:10.286Z,7.7
2022-12-11T08:16:18.726Z,7.6
2022-12-11T08:26:27.440Z,7.5
2022-12-11T08:36:35.646Z,7.5
2022-12-11T08:46:43.798Z,7.5
2022-12-11T08:56:57.695Z,7.5
2022-12-11T09:07:00.752Z,7.6
2022-12-11T09:17:08.919Z,7.6
2022-12-11T09:27:17.091Z,7.9
2022-12-11T09:37:25.603Z,7.8
2022-12-11T09:47:33.959Z,7.7
2022-12-11T09:57:42.075Z,7.9
2022-12-11T10:07:50.364Z,8.2
2022-12-11T10:18:03.072Z,8.6
2022-12-11T10:28:05.370Z,8.4
2022-12-11T10:38:13.519Z,8.1
2022-12-11T10:48:24.002Z,8.3
2022-12-11T10:58:32.107Z,8.6
2022-12-11T11:08:42.069Z,8.7
2022-12-11T11:18:50.623Z,8.5
2022-12-11T11:28:59.081Z,8.8
2022-12-11T11:39:02.607Z,9
2022-12-11T11:49:11.077Z,9.5
2022-12-11T11:59:19.160Z,9.3
2022-12-11T12:09:30.653Z,9.5
2022-12-11T12:19:30.927Z,10
2022-12-11T12:29:40.278Z,10.2
2022-12-11T12:39:49.522Z,10
2022-12-11T12:49:57.582Z,10.4
2022-12-11T13:00:09.630Z,10.3
2022-12-11T13:10:12.929Z,10.4
2022-12-11T13:20:14.459Z,10.7
2022-12-11T13:30:14.594Z,10.9
2022-12-11T13:40:24.969Z,10.9
2022-12-11T13:50:24.408Z,10.7
2022-12-11T14:00:32.924Z,10.9
2022-12-11T14:10:41.079Z,10.7
2022-12-11T14:20:49.148Z,10.7
2022-12-11T14:30:57.319Z,10.5
2022-12-11T14:41:05.585Z,10.6
2022-12-11T14:51:13.775Z,10.9
2022-12-11T15:01:22.054Z,11.2
2022-12-11T15:11:28.831Z,11.1
2022-12-11T15:21:29.191Z,11.1
2022-12-11T15:31:38.647Z,10.8
2022-12-11T15:41:46.763Z,10.6
2022-12-11T15:51:55.980Z,10.9
2022-12-11T16:02:04.059Z,11.1
2022-12-11T16:12:13.509Z,10.9
2022-12-11T16:22:15.841Z,10.6
2022-12-11T16:32:25.548Z,10.6
2022-12-11T16:42:25.442Z,10.5
2022-12-11T16:52:35.843Z,10.4
2022-12-11T17:02:44.149Z,10.5
2022-12-11T17:12:52.204Z,10.3
2022-12-11T17:23:00.810Z,10.4
2022-12-11T17:33:08.958Z,10.3
2022-12-11T17:43:17.238Z,10.4
2022-12-11T17:53:25.226Z,10.6
2022-12-11T18:03:33.276Z,10.6
2022-12-11T18:13:41.353Z,10.6
2022-12-11T18:23:49.394Z,10.6
2022-12-11T18:33:58.488Z,10.7
2022-12-11T18:44:01.956Z,10.8
2022-12-11T18:54:08.165Z,10.7
2022-12-11T19:04:10.919Z,10.8
2022-12-11T19:14:48.208Z,10.9
2022-12-11T19:24:28.874Z,10.9
2022-12-11T19:34:30.398Z,10.9
2022-12-11T19:44:37.147Z,10.8
2022-12-11T19:54:40.817Z,11.2
2022-12-11T20:04:57.067Z,11
2022-12-11T20:14:59.660Z,11.2
2022-12-11T20:25:04.051Z,11.2
2022-12-11T20:35:10.952Z,11.3
2022-12-11T20:45:03.653Z,11.1
2022-12-11T20:55:14.043Z,11
2022-12-11T21:05:21.560Z,10.9
2022-12-11T21:15:29.958Z,10.9
2022-12-11T21:25:38.175Z,11
2022-12-11T21:35:46.857Z,11
2022-12-11T21:46:01.924Z,10.9
2022-12-11T21:56:02.121Z,10.8
2022-12-11T22:06:10.824Z,10.6
2022-12-11T22:16:19.343Z,10.5
2022-12-11T22:26:27.763Z,10.4
2022-12-11T22:36:36.847Z,10.3
2022-12-11T22:46:49.604Z,10.4
2022-12-11T22:56:59.911Z,10.4
2022-12-11T23:06:58.177Z,10.4
2022-12-11T23:17:06.418Z,10.3
2022-12-11T23:27:14.560Z,10
2022-12-11T23:37:22.968Z,10.1
2022-12-11T23:47:31.522Z,10.3
2022-12-11T23:57:39.708Z,10.2
